FACT/CPT METAR and TAF weather

Enter ICAO airport designator
Station Type Date Time Source
FACT METAR 2020/12/01 21:00 UTC NOAA

FACT 012100Z 17013KT 9999 FEW025 SCT048 16/10 Q1022 NOSIG


Station Type Date Time Source
FACT Decoded METAR 2020/12/01 21:00 UTC NOAA

Cape Town, Cape Town International Airport, South Africa (FACT) 33-59S 018-36E 0M
Dec 01, 2020 - 04:00 PM EST / 2020.12.01 2100 UTC
Wind: from the S (170 degrees) at 15 MPH (13 KT):0
Visibility: greater than 7 mile(s):0
Sky conditions: partly cloudy
Temperature: 60 F (16 C)
Dew Point: 50 F (10 C)
Relative Humidity: 67%
Pressure (altimeter): 30.18 in. Hg (1022 hPa)
ob: FACT 012100Z 17013KT 9999 FEW025 SCT048 16/10 Q1022 NOSIG
cycle: 21

Station Type Date Time Source
FACT TAF 2020/12/01 18:10 UTC NOAA

TAF FACT 011600Z 0118/0224 16020KT 9999 SCT045 TX23/0212Z TN13/0204Z PROB40
TEMPO 0212/0218 16020G30KT

Example: see airport list